Time;durP1;ratioP1;P1;durP2;ratioP2;P2;SDS_P1;SDS_P2;PMS_P1;PMS_P2;Temp;Humidity;BMP_temperature;BMP_pressure;BME280_temperature;BME280_humidity;BME280_pressure;Samples;Min_cycle;Max_cycle;Signal;HPM_P1;HPM_P2
2022/10/10 00:00:40;;;;;;;12.23;6.57;;;9.00;69.70;;;;;;5091643;28;20387;-72
2022/10/10 00:03:07;;;;;;;11.20;5.90;;;8.90;70.30;;;;;;5092052;28;20377;-71
2022/10/10 00:05:33;;;;;;;11.32;7.32;;;8.80;71.80;;;;;;5095548;28;20385;-71
2022/10/10 00:07:59;;;;;;;12.00;6.50;;;8.80;72.80;;;;;;5094238;28;20382;-71
2022/10/10 00:10:24;;;;;;;10.90;6.45;;;8.70;72.50;;;;;;5097545;28;20388;-71
2022/10/10 00:12:50;;;;;;;10.18;6.90;;;8.80;72.70;;;;;;5098821;28;20390;-71
2022/10/10 00:15:16;;;;;;;12.20;6.40;;;8.70;74.30;;;;;;5097277;28;20824;-71
2022/10/10 00:17:42;;;;;;;10.67;6.50;;;8.80;73.50;;;;;;5095330;28;20402;-71
2022/10/10 00:20:13;;;;;;;9.10;5.80;;;8.70;74.40;;;;;;5094863;28;20382;-71
2022/10/10 00:22:39;;;;;;;12.88;6.30;;;8.70;74.00;;;;;;5095481;28;20423;-71
2022/10/10 00:25:07;;;;;;;11.15;6.82;;;8.60;75.70;;;;;;5095484;28;20370;-73
2022/10/10 00:27:33;;;;;;;8.95;5.80;;;8.50;77.10;;;;;;5094327;28;20386;-71
2022/10/10 00:29:58;;;;;;;10.13;6.80;;;8.50;77.40;;;;;;5093812;28;20389;-71
2022/10/10 00:32:24;;;;;;;10.33;6.23;;;8.50;78.90;;;;;;5093494;28;20382;-70
2022/10/10 00:34:50;;;;;;;9.57;5.80;;;8.50;80.10;;;;;;5093925;28;20414;-71
2022/10/10 00:37:15;;;;;;;11.70;5.90;;;8.60;77.20;;;;;;5093953;28;20483;-71
2022/10/10 00:39:41;;;;;;;13.60;6.68;;;8.70;76.00;;;;;;5093544;28;20378;-72
2022/10/10 00:42:11;;;;;;;13.48;6.72;;;8.70;75.10;;;;;;5093899;28;20871;-71
2022/10/10 00:44:38;;;;;;;6.95;5.30;;;8.60;77.30;;;;;;5093837;28;20382;-71
2022/10/10 00:47:04;;;;;;;13.80;7.00;;;8.70;77.70;;;;;;5093843;28;20378;-72
2022/10/10 00:49:30;;;;;;;10.50;6.10;;;8.60;78.20;;;;;;5093949;28;20370;-71
2022/10/10 00:51:58;;;;;;;13.00;6.60;;;8.60;78.10;;;;;;5093244;28;20499;-71
2022/10/10 00:54:25;;;;;;;15.27;7.72;;;8.50;79.50;;;;;;5093845;28;20386;-72
2022/10/10 00:56:55;;;;;;;9.07;6.10;;;8.50;79.90;;;;;;5093164;28;20388;-71
2022/10/10 00:59:22;;;;;;;9.88;6.43;;;8.50;80.00;;;;;;5093328;28;20883;-71
2022/10/10 01:01:47;;;;;;;8.00;5.60;;;8.60;78.70;;;;;;5092797;28;20443;-71
2022/10/10 01:04:30;;;;;;;11.00;5.73;;;8.60;78.60;;;;;;5093188;28;20795;-71
2022/10/10 01:06:56;;;;;;;10.70;6.20;;;8.70;77.70;;;;;;5091559;28;20405;-72
2022/10/10 01:09:21;;;;;;;7.00;5.50;;;8.60;78.10;;;;;;5092054;28;20481;-72
2022/10/10 01:11:54;;;;;;;12.52;5.90;;;8.60;77.40;;;;;;5092471;28;20477;-72
2022/10/10 01:14:38;;;;;;;11.00;5.10;;;8.70;76.40;;;;;;5092213;28;20398;-71
2022/10/10 01:17:45;;;;;;;9.30;5.90;;;8.70;75.90;;;;;;5091733;28;20405;-72
2022/10/10 01:20:19;;;;;;;12.80;5.95;;;8.60;76.40;;;;;;5070138;28;20400;-71
2022/10/10 01:23:05;;;;;;;7.93;5.20;;;8.70;77.20;;;;;;5088682;28;20398;-72
2022/10/10 01:26:22;;;;;;;10.03;5.67;;;8.70;75.80;;;;;;5087970;28;20738;-72
2022/10/10 01:29:02;;;;;;;7.07;5.38;;;8.70;76.80;;;;;;5080286;28;20382;-71
2022/10/10 01:31:32;;;;;;;12.13;7.30;;;8.60;76.50;;;;;;5092513;28;20371;-71
2022/10/10 01:34:27;;;;;;;14.45;6.45;;;8.60;78.20;;;;;;5092224;28;20402;-70
2022/10/10 01:37:14;;;;;;;10.57;5.65;;;8.60;77.80;;;;;;5092380;28;20702;-71
2022/10/10 01:39:43;;;;;;;8.50;5.55;;;8.60;77.10;;;;;;5092570;28;20418;-72
2022/10/10 01:42:24;;;;;;;12.32;5.88;;;8.70;76.30;;;;;;5092705;28;20385;-71
2022/10/10 01:44:52;;;;;;;11.45;6.70;;;8.70;75.50;;;;;;5093178;28;20865;-71
2022/10/10 01:47:21;;;;;;;10.00;5.57;;;8.70;75.00;;;;;;5092810;28;20450;-71
2022/10/10 01:49:49;;;;;;;9.00;6.07;;;8.70;75.30;;;;;;5091972;28;20758;-71
2022/10/10 01:52:26;;;;;;;9.10;5.10;;;8.70;74.20;;;;;;5091994;28;20972;-71
2022/10/10 01:54:52;;;;;;;9.68;5.90;;;8.70;73.70;;;;;;5092094;28;20374;-70
2022/10/10 01:57:28;;;;;;;8.73;4.80;;;8.70;74.10;;;;;;5092327;28;20827;-70
2022/10/10 02:00:07;;;;;;;9.77;5.55;;;8.70;73.80;;;;;;5092178;28;20400;-70
2022/10/10 02:02:51;;;;;;;8.38;5.57;;;8.70;74.40;;;;;;5091993;28;20389;-71
2022/10/10 02:05:44;;;;;;;6.72;5.32;;;8.70;74.70;;;;;;5092846;28;20831;-70
2022/10/10 02:08:33;;;;;;;8.13;4.95;;;8.70;74.50;;;;;;5092874;28;20374;-71
2022/10/10 02:11:02;;;;;;;10.45;5.70;;;8.70;74.50;;;;;;5092155;28;20378;-72
2022/10/10 02:13:35;;;;;;;11.18;6.20;;;8.70;75.00;;;;;;5092998;28;20834;-71
2022/10/10 02:16:03;;;;;;;9.43;6.00;;;8.80;74.60;;;;;;5092700;28;20395;-71
2022/10/10 02:18:32;;;;;;;7.88;5.32;;;8.80;73.80;;;;;;5094930;28;20471;-71
2022/10/10 02:21:00;;;;;;;6.97;5.05;;;8.80;74.80;;;;;;5105796;28;20485;-71
2022/10/10 02:23:26;;;;;;;8.35;5.10;;;8.70;75.00;;;;;;5104841;28;20445;-72
2022/10/10 02:25:54;;;;;;;12.17;5.90;;;8.80;74.50;;;;;;5100319;28;20386;-70
2022/10/10 02:28:32;;;;;;;8.20;5.10;;;8.80;74.70;;;;;;5106514;28;20386;-70
2022/10/10 02:31:02;;;;;;;7.07;4.82;;;8.80;75.50;;;;;;5109340;28;20387;-71
2022/10/10 02:33:43;;;;;;;8.55;5.30;;;8.80;74.50;;;;;;5112766;28;20382;-71
2022/10/10 02:36:10;;;;;;;7.60;4.90;;;8.90;73.80;;;;;;5112705;28;20402;-72
2022/10/10 02:38:36;;;;;;;11.52;4.90;;;8.90;73.10;;;;;;5112118;28;20424;-71
2022/10/10 02:41:04;;;;;;;7.55;4.70;;;8.90;72.80;;;;;;5097585;28;20428;-71
2022/10/10 02:43:33;;;;;;;9.30;4.97;;;8.90;72.80;;;;;;5092327;28;20423;-70
2022/10/10 02:46:07;;;;;;;7.22;5.20;;;8.90;72.80;;;;;;5091693;28;20750;-71
2022/10/10 02:48:32;;;;;;;8.52;5.30;;;8.90;73.30;;;;;;5091540;28;20370;-71
2022/10/10 02:50:58;;;;;;;11.35;4.90;;;8.90;73.40;;;;;;5090725;28;20393;-72
2022/10/10 02:53:24;;;;;;;10.75;4.45;;;8.90;74.20;;;;;;5091056;28;20402;-72
2022/10/10 02:55:49;;;;;;;7.23;5.00;;;8.90;73.20;;;;;;5091049;28;20716;-71
2022/10/10 02:58:15;;;;;;;9.23;4.77;;;8.90;72.60;;;;;;5091383;28;20542;-72
2022/10/10 03:00:40;;;;;;;10.20;5.30;;;9.00;70.80;;;;;;5090974;28;20469;-70
2022/10/10 03:03:06;;;;;;;9.18;4.70;;;9.00;71.10;;;;;;5091292;28;20385;-71
2022/10/10 03:05:32;;;;;;;9.52;5.10;;;9.00;70.90;;;;;;5091318;28;20378;-71
2022/10/10 03:07:57;;;;;;;7.70;5.00;;;9.00;71.40;;;;;;5091216;28;20901;-71
2022/10/10 03:10:23;;;;;;;8.38;5.20;;;9.10;71.60;;;;;;5091459;28;20413;-71
2022/10/10 03:12:48;;;;;;;5.97;4.80;;;9.00;72.20;;;;;;5091396;28;20423;-72
2022/10/10 03:15:14;;;;;;;7.80;5.10;;;9.00;72.20;;;;;;5091579;28;20502;-72
2022/10/10 03:17:39;;;;;;;9.60;5.35;;;9.10;71.70;;;;;;5091553;28;20496;-71
2022/10/10 03:20:06;;;;;;;10.70;5.80;;;9.10;70.80;;;;;;5092042;28;20382;-70
2022/10/10 03:22:31;;;;;;;8.90;5.75;;;9.10;72.00;;;;;;5090718;28;20393;-71
2022/10/10 03:24:57;;;;;;;6.90;4.90;;;9.20;72.30;;;;;;5092068;28;20385;-71
2022/10/10 03:27:22;;;;;;;7.00;5.10;;;9.10;71.70;;;;;;5094825;28;20386;-72
2022/10/10 03:29:48;;;;;;;7.43;4.73;;;9.20;72.10;;;;;;5094865;28;20385;-72
2022/10/10 03:32:13;;;;;;;8.30;5.00;;;9.10;72.50;;;;;;5091708;28;20370;-71
2022/10/10 03:34:39;;;;;;;13.10;6.28;;;9.20;71.40;;;;;;5090852;28;20389;-70
2022/10/10 03:37:04;;;;;;;10.88;5.45;;;9.20;72.20;;;;;;5091147;28;20471;-70
2022/10/10 03:39:30;;;;;;;10.88;4.95;;;9.10;72.50;;;;;;5094485;28;20378;-71
2022/10/10 03:41:56;;;;;;;11.20;4.68;;;9.20;72.30;;;;;;5093978;28;20393;-71
2022/10/10 03:44:21;;;;;;;8.18;5.00;;;9.20;72.60;;;;;;5094302;28;20393;-71
2022/10/10 03:46:47;;;;;;;7.90;5.50;;;9.20;73.30;;;;;;5094194;28;20420;-71
2022/10/10 03:49:12;;;;;;;9.70;5.10;;;9.20;72.70;;;;;;5094132;28;20389;-71
2022/10/10 03:51:38;;;;;;;7.50;4.47;;;9.30;72.00;;;;;;5094431;28;20409;-71
2022/10/10 03:54:04;;;;;;;9.03;5.30;;;9.20;72.70;;;;;;5094173;28;20378;-71
2022/10/10 03:56:29;;;;;;;8.20;5.17;;;9.30;72.30;;;;;;5094042;28;20443;-71
2022/10/10 03:58:59;;;;;;;12.47;6.00;;;9.30;73.10;;;;;;5093780;28;20425;-70
2022/10/10 04:01:25;;;;;;;8.87;5.20;;;9.30;72.40;;;;;;5092492;28;20420;-71
2022/10/10 04:03:50;;;;;;;10.40;5.50;;;9.20;73.90;;;;;;5093844;28;20422;-71
2022/10/10 04:06:16;;;;;;;8.35;5.47;;;9.30;72.90;;;;;;5093846;28;20390;-70
2022/10/10 04:08:41;;;;;;;10.63;5.70;;;9.20;73.70;;;;;;5092807;28;20386;-71
2022/10/10 04:11:07;;;;;;;11.27;5.57;;;9.20;73.40;;;;;;5094264;28;20416;-71
2022/10/10 04:13:33;;;;;;;10.30;5.57;;;9.20;73.80;;;;;;5094164;28;20385;-70
2022/10/10 04:15:58;;;;;;;9.80;5.33;;;9.10;75.30;;;;;;5094500;28;20443;-70
2022/10/10 04:18:24;;;;;;;7.80;5.10;;;9.10;76.60;;;;;;5093086;28;20402;-71
2022/10/10 04:20:50;;;;;;;10.40;5.80;;;9.10;76.30;;;;;;5094191;28;20382;-71
2022/10/10 04:23:15;;;;;;;10.33;5.50;;;9.10;76.60;;;;;;5094183;28;20427;-70
2022/10/10 04:25:42;;;;;;;10.82;5.90;;;9.20;77.20;;;;;;5093716;28;20754;-70
2022/10/10 04:28:11;;;;;;;11.90;5.97;;;9.20;76.30;;;;;;5093541;28;20425;-71
2022/10/10 04:30:37;;;;;;;9.85;5.10;;;9.20;77.20;;;;;;5093564;28;20769;-71
2022/10/10 04:33:02;;;;;;;11.30;5.60;;;9.20;76.60;;;;;;5093535;28;20416;-70
2022/10/10 04:35:28;;;;;;;11.90;5.57;;;9.20;76.70;;;;;;5093550;28;20389;-70
2022/10/10 04:37:53;;;;;;;9.65;6.00;;;9.10;77.80;;;;;;5093596;28;20719;-71
2022/10/10 04:40:19;;;;;;;9.43;6.10;;;9.20;78.20;;;;;;5093722;28;20378;-71
2022/10/10 04:42:45;;;;;;;8.30;5.90;;;9.10;78.50;;;;;;5093026;28;20409;-71
2022/10/10 04:45:10;;;;;;;11.47;6.40;;;9.10;78.80;;;;;;5093157;28;20442;-71
2022/10/10 04:47:36;;;;;;;11.00;6.25;;;9.10;79.80;;;;;;5093142;28;20870;-71
2022/10/10 04:50:02;;;;;;;9.57;6.50;;;9.10;80.40;;;;;;5092565;28;20381;-71
2022/10/10 04:52:27;;;;;;;10.27;6.10;;;9.10;79.80;;;;;;5092886;28;20479;-70
2022/10/10 04:54:53;;;;;;;10.80;5.40;;;9.10;81.10;;;;;;5093238;28;20819;-71
2022/10/10 04:57:19;;;;;;;9.63;5.70;;;9.10;81.30;;;;;;5093082;28;20378;-71
2022/10/10 04:59:44;;;;;;;10.27;6.17;;;9.10;81.60;;;;;;5092931;28;20465;-70
2022/10/10 05:02:10;;;;;;;11.33;5.97;;;9.10;81.30;;;;;;5092795;28;20382;-70
2022/10/10 05:04:35;;;;;;;10.87;6.07;;;9.10;83.20;;;;;;5093117;28;20606;-71
2022/10/10 05:07:01;;;;;;;8.90;5.70;;;9.00;84.70;;;;;;5092798;28;20878;-70
2022/10/10 05:09:26;;;;;;;11.65;6.40;;;9.00;85.70;;;;;;5092812;28;20944;-70
2022/10/10 05:11:52;;;;;;;9.27;6.50;;;9.00;86.40;;;;;;5092373;28;20469;-70
2022/10/10 05:14:17;;;;;;;10.45;6.10;;;8.90;87.10;;;;;;5092649;28;20813;-70
2022/10/10 05:16:43;;;;;;;10.98;6.75;;;8.90;87.90;;;;;;5092564;28;20747;-70
2022/10/10 05:19:09;;;;;;;8.87;6.57;;;8.90;88.40;;;;;;5092337;28;20474;-71
2022/10/10 05:21:34;;;;;;;12.47;6.77;;;8.90;88.50;;;;;;5091864;28;20400;-71
2022/10/10 05:24:00;;;;;;;11.10;7.03;;;8.90;89.10;;;;;;5092344;28;20389;-71
2022/10/10 05:26:26;;;;;;;11.85;6.47;;;8.80;89.00;;;;;;5092496;28;20448;-71
2022/10/10 05:28:51;;;;;;;13.63;7.00;;;8.90;89.70;;;;;;5092128;28;20394;-71
2022/10/10 05:31:17;;;;;;;12.95;7.05;;;8.90;89.30;;;;;;5092247;28;20461;-71
2022/10/10 05:33:43;;;;;;;14.00;6.70;;;8.90;89.20;;;;;;5092451;28;20878;-70
2022/10/10 05:36:11;;;;;;;11.10;6.43;;;8.90;89.70;;;;;;5092206;28;20385;-70
2022/10/10 05:38:38;;;;;;;11.45;6.85;;;8.90;89.60;;;;;;5092035;28;20398;-71
2022/10/10 05:41:04;;;;;;;10.88;6.35;;;8.90;89.90;;;;;;5092356;28;20739;-71
2022/10/10 05:43:29;;;;;;;9.52;6.93;;;8.80;90.10;;;;;;5092242;28;20378;-71
2022/10/10 05:45:55;;;;;;;11.80;6.80;;;8.80;90.80;;;;;;5091790;28;20384;-71
2022/10/10 05:48:21;;;;;;;11.05;7.28;;;8.90;90.50;;;;;;5091743;28;20432;-71
2022/10/10 05:50:49;;;;;;;15.40;7.05;;;8.90;89.60;;;;;;5090573;28;20394;-71
2022/10/10 05:53:14;;;;;;;10.65;6.97;;;8.90;90.10;;;;;;5091563;28;20398;-72
2022/10/10 05:55:40;;;;;;;14.02;7.20;;;8.90;90.00;;;;;;5090354;28;20419;-71
2022/10/10 05:58:06;;;;;;;9.57;6.35;;;9.00;88.10;;;;;;5091670;28;20455;-70
2022/10/10 06:00:32;;;;;;;7.97;6.63;;;9.00;88.20;;;;;;5091104;28;20385;-70
2022/10/10 06:02:57;;;;;;;12.38;6.80;;;9.00;88.80;;;;;;5091229;28;20971;-70
2022/10/10 06:05:24;;;;;;;10.70;7.03;;;9.00;89.30;;;;;;5091829;28;20378;-71
2022/10/10 06:07:49;;;;;;;20.48;7.10;;;9.00;88.20;;;;;;5090139;28;20900;-71
2022/10/10 06:10:15;;;;;;;13.30;7.53;;;9.00;89.00;;;;;;5091716;28;20483;-71
2022/10/10 06:12:40;;;;;;;10.40;7.05;;;9.00;88.40;;;;;;5091351;28;20385;-71
2022/10/10 06:15:06;;;;;;;11.43;7.40;;;9.10;88.00;;;;;;5092036;28;20879;-71
2022/10/10 06:17:32;;;;;;;13.15;7.10;;;9.10;87.20;;;;;;5091854;28;20404;-71
2022/10/10 06:19:57;;;;;;;12.90;6.97;;;9.20;85.60;;;;;;5092007;28;20859;-71
2022/10/10 06:22:23;;;;;;;10.40;6.50;;;9.20;86.10;;;;;;5091434;28;20494;-71
2022/10/10 06:24:48;;;;;;;14.73;7.28;;;9.20;86.10;;;;;;5091426;28;20378;-71
2022/10/10 06:27:14;;;;;;;12.02;7.72;;;9.20;87.20;;;;;;5091409;28;20378;-70
2022/10/10 06:29:40;;;;;;;14.85;7.75;;;9.30;85.40;;;;;;5092015;28;20377;-71
2022/10/10 06:32:05;;;;;;;14.13;7.90;;;9.30;85.40;;;;;;5091384;28;20766;-72
2022/10/10 06:34:31;;;;;;;14.43;7.95;;;9.40;85.30;;;;;;5092026;28;20925;-71
2022/10/10 06:36:56;;;;;;;13.97;7.80;;;9.50;83.70;;;;;;5091850;28;21466;-71
2022/10/10 06:39:22;;;;;;;12.97;8.27;;;9.50;82.50;;;;;;5092039;28;20971;-70
2022/10/10 06:41:48;;;;;;;10.53;7.50;;;9.50;82.60;;;;;;5091910;28;20382;-71
2022/10/10 06:44:16;;;;;;;14.70;7.32;;;9.60;82.00;;;;;;5092447;28;20428;-70
2022/10/10 06:46:41;;;;;;;13.07;7.22;;;9.80;81.20;;;;;;5101131;28;20445;-71
2022/10/10 06:49:07;;;;;;;12.95;7.75;;;9.90;79.10;;;;;;5103625;28;20398;-70
2022/10/10 06:51:32;;;;;;;15.82;7.90;;;10.00;78.40;;;;;;5103441;28;20383;-70
2022/10/10 06:53:58;;;;;;;12.50;7.28;;;10.10;77.10;;;;;;5102937;28;20378;-70
2022/10/10 06:56:24;;;;;;;15.35;8.00;;;10.30;74.50;;;;;;5098150;28;20481;-71
2022/10/10 06:58:50;;;;;;;11.85;7.32;;;10.30;73.80;;;;;;5090968;28;20398;-71
2022/10/10 07:01:20;;;;;;;16.83;7.83;;;10.40;71.80;;;;;;5090621;28;20386;-71
2022/10/10 07:03:46;;;;;;;11.82;7.40;;;10.50;71.60;;;;;;5091104;28;20378;-71
2022/10/10 07:06:13;;;;;;;11.63;7.00;;;10.70;70.30;;;;;;5090969;28;20369;-70
2022/10/10 07:08:39;;;;;;;10.35;7.00;;;10.80;69.10;;;;;;5090996;28;20378;-71
2022/10/10 07:11:06;;;;;;;10.07;6.90;;;10.90;67.30;;;;;;5090490;28;20789;-71
2022/10/10 07:13:33;;;;;;;14.32;7.15;;;11.00;67.10;;;;;;5093607;28;20378;-72
2022/10/10 07:15:58;;;;;;;12.98;7.10;;;11.00;66.70;;;;;;5095344;28;20393;-71
2022/10/10 07:18:24;;;;;;;13.07;7.27;;;11.20;66.10;;;;;;5095097;28;20398;-71
2022/10/10 07:20:49;;;;;;;15.70;7.72;;;11.20;64.80;;;;;;5093803;28;20400;-71
2022/10/10 07:23:16;;;;;;;12.88;6.88;;;11.30;64.70;;;;;;5095016;28;20457;-71
2022/10/10 07:25:42;;;;;;;18.33;7.90;;;11.40;63.30;;;;;;5094743;28;20378;-71
2022/10/10 07:28:09;;;;;;;13.85;7.13;;;11.50;63.10;;;;;;5094574;28;20386;-70
2022/10/10 07:30:42;;;;;;;11.77;7.63;;;11.60;62.80;;;;;;5094642;28;20808;-71
2022/10/10 07:33:08;;;;;;;11.35;8.07;;;11.80;60.90;;;;;;5094439;28;20400;-72
2022/10/10 07:35:34;;;;;;;10.15;7.88;;;11.80;60.10;;;;;;5094797;28;20981;-72
2022/10/10 07:38:00;;;;;;;12.00;7.60;;;11.90;60.10;;;;;;5094537;28;20489;-71
2022/10/10 07:40:25;;;;;;;12.20;7.67;;;11.90;59.30;;;;;;5094707;28;20462;-71
2022/10/10 07:42:51;;;;;;;15.35;8.10;;;12.00;59.20;;;;;;5094650;28;20388;-71
2022/10/10 07:45:16;;;;;;;16.85;8.13;;;11.90;60.00;;;;;;5094902;28;20440;-71
2022/10/10 07:47:42;;;;;;;17.33;7.75;;;12.00;59.20;;;;;;5094468;28;20386;-71
2022/10/10 07:50:10;;;;;;;12.40;8.52;;;12.10;59.00;;;;;;5094325;28;20417;-71
2022/10/10 07:52:36;;;;;;;14.00;8.02;;;12.10;59.60;;;;;;5093817;28;20955;-71
2022/10/10 07:55:04;;;;;;;19.30;8.00;;;12.10;60.60;;;;;;5094589;28;20454;-72
2022/10/10 07:57:33;;;;;;;13.73;8.50;;;12.10;58.90;;;;;;5094319;28;20410;-72
2022/10/10 08:00:04;;;;;;;26.65;8.50;;;12.20;59.60;;;;;;5095540;28;20382;-72
2022/10/10 08:02:29;;;;;;;9.75;7.20;;;12.20;59.50;;;;;;5094347;28;20377;-70
2022/10/10 08:04:55;;;;;;;14.07;8.60;;;12.20;59.40;;;;;;5095844;28;20719;-71
2022/10/10 08:07:20;;;;;;;15.00;9.60;;;12.20;59.70;;;;;;5093035;28;20382;-72
2022/10/10 08:09:46;;;;;;;12.93;8.57;;;12.20;60.30;;;;;;5093132;28;20432;-73
2022/10/10 08:12:11;;;;;;;13.10;8.90;;;12.40;59.10;;;;;;5094035;28;20382;-72
2022/10/10 08:14:37;;;;;;;13.93;8.80;;;12.40;59.80;;;;;;5094146;28;20382;-70
2022/10/10 08:17:02;;;;;;;15.07;9.40;;;12.50;58.50;;;;;;5094349;28;20412;-70
2022/10/10 08:19:28;;;;;;;15.50;8.97;;;12.50;58.90;;;;;;5094318;28;20882;-72
2022/10/10 08:21:54;;;;;;;20.20;7.60;;;12.60;58.80;;;;;;5093749;28;20378;-71
2022/10/10 08:24:19;;;;;;;15.93;7.97;;;12.70;57.70;;;;;;5093073;28;20461;-71
2022/10/10 08:26:45;;;;;;;15.77;8.30;;;12.80;56.70;;;;;;5093823;28;20409;-71
2022/10/10 08:29:10;;;;;;;14.83;8.50;;;12.90;56.80;;;;;;5093735;28;20444;-72
2022/10/10 08:31:36;;;;;;;14.57;7.93;;;13.00;56.50;;;;;;5093488;28;20378;-72
2022/10/10 08:34:01;;;;;;;19.37;9.30;;;13.10;53.90;;;;;;5093907;28;20382;-72
2022/10/10 08:36:27;;;;;;;16.10;7.97;;;13.20;53.30;;;;;;5093772;28;20450;-71
2022/10/10 08:38:58;;;;;;;18.67;9.05;;;13.40;52.70;;;;;;5093669;28;20406;-72
2022/10/10 08:41:39;;;;;;;16.83;8.88;;;13.40;53.10;;;;;;5093862;28;20930;-71
2022/10/10 08:44:42;;;;;;;15.15;8.25;;;13.40;53.70;;;;;;5093617;28;20381;-71
2022/10/10 08:47:19;;;;;;;17.20;9.00;;;13.50;51.90;;;;;;5093754;28;20436;-72
2022/10/10 08:49:47;;;;;;;13.50;8.00;;;13.60;51.50;;;;;;5093629;28;20939;-70
2022/10/10 08:52:44;;;;;;;21.20;8.40;;;13.70;50.90;;;;;;5092138;28;20391;-72
2022/10/10 08:55:21;;;;;;;23.02;9.30;;;13.80;49.70;;;;;;5093547;28;20377;-74
2022/10/10 08:57:54;;;;;;;15.63;8.40;;;13.90;49.80;;;;;;5094513;28;20398;-72
2022/10/10 09:00:23;;;;;;;32.45;9.70;;;14.00;49.50;;;;;;5094689;28;20374;-72
2022/10/10 09:02:55;;;;;;;14.68;8.40;;;14.10;48.40;;;;;;5093848;28;20380;-71
2022/10/10 09:05:46;;;;;;;16.73;8.02;;;14.30;46.80;;;;;;5095020;28;20378;-71
2022/10/10 09:08:39;;;;;;;37.00;11.10;;;14.40;47.20;;;;;;5078634;28;20394;-72
2022/10/10 09:11:35;;;;;;;18.77;8.73;;;14.60;47.30;;;;;;5095864;28;20890;-72
2022/10/10 09:14:20;;;;;;;15.20;7.90;;;14.80;45.20;;;;;;5095242;28;20719;-73
2022/10/10 09:16:59;;;;;;;19.90;8.90;;;14.90;45.20;;;;;;5095465;28;20385;-72
2022/10/10 09:19:46;;;;;;;18.33;8.45;;;15.20;43.50;;;;;;5094927;28;20502;-71
2022/10/10 09:22:18;;;;;;;12.30;7.85;;;15.40;42.90;;;;;;5094777;28;20434;-71
2022/10/10 09:24:56;;;;;;;19.42;8.23;;;15.50;41.10;;;;;;5096708;28;20408;-71
2022/10/10 09:27:27;;;;;;;17.17;7.63;;;15.80;40.40;;;;;;5094840;28;20600;-71
2022/10/10 09:30:05;;;;;;;13.40;7.90;;;15.80;39.50;;;;;;5094572;28;20385;-72
2022/10/10 09:32:40;;;;;;;16.25;7.75;;;16.00;38.30;;;;;;5093975;28;20375;-71
2022/10/10 09:35:28;;;;;;;17.40;8.00;;;15.90;38.90;;;;;;5093703;28;20739;-71
2022/10/10 09:38:05;;;;;;;17.65;7.72;;;15.90;39.10;;;;;;5092667;28;20429;-71
2022/10/10 09:40:36;;;;;;;13.15;7.35;;;16.10;39.10;;;;;;5093845;28;20446;-72
2022/10/10 09:43:18;;;;;;;18.42;8.50;;;16.20;37.90;;;;;;5091660;28;21589;-71
2022/10/10 09:45:51;;;;;;;18.98;7.50;;;16.30;38.60;;;;;;5094542;28;20416;-71
2022/10/10 09:48:27;;;;;;;16.38;7.70;;;16.40;37.90;;;;;;5093456;28;20382;-71
2022/10/10 09:50:52;;;;;;;24.35;8.38;;;16.60;37.10;;;;;;5093177;28;20461;-71
2022/10/10 09:53:18;;;;;;;11.73;6.70;;;16.70;36.80;;;;;;5096009;28;20420;-71
2022/10/10 09:55:46;;;;;;;12.07;7.10;;;17.00;35.70;;;;;;5096509;28;20390;-72
2022/10/10 09:58:19;;;;;;;13.00;6.43;;;16.90;35.40;;;;;;5097987;28;20409;-71
2022/10/10 10:00:45;;;;;;;17.33;7.30;;;16.80;35.80;;;;;;5093223;28;20382;-71
2022/10/10 10:03:16;;;;;;;16.02;7.38;;;16.60;36.00;;;;;;5090902;28;20386;-70
2022/10/10 10:05:54;;;;;;;12.05;7.10;;;16.50;36.30;;;;;;5092200;28;20438;-72
2022/10/10 10:08:31;;;;;;;17.02;7.57;;;16.50;36.70;;;;;;5092540;28;20464;-75
2022/10/10 10:10:57;;;;;;;15.88;6.75;;;16.50;37.60;;;;;;5093264;28;20457;-70
2022/10/10 10:13:32;;;;;;;14.23;7.15;;;16.50;38.30;;;;;;5092513;28;20383;-71
2022/10/10 10:16:04;;;;;;;17.70;7.00;;;16.70;37.50;;;;;;5092771;28;20740;-71
2022/10/10 10:18:36;;;;;;;18.42;7.80;;;16.90;37.60;;;;;;5092823;28;20408;-70
2022/10/10 10:21:01;;;;;;;13.68;7.30;;;17.10;36.40;;;;;;5091823;28;20382;-71
2022/10/10 10:23:31;;;;;;;18.90;7.65;;;17.20;35.00;;;;;;5092584;28;20389;-71
2022/10/10 10:26:03;;;;;;;13.95;7.10;;;17.30;35.20;;;;;;5091936;28;20381;-71
2022/10/10 10:28:29;;;;;;;17.20;7.20;;;17.40;35.30;;;;;;5092625;28;20374;-71
2022/10/10 10:30:57;;;;;;;18.63;7.65;;;17.40;34.80;;;;;;5091455;28;20799;-71
2022/10/10 10:34:11;;;;;;;18.25;7.47;;;17.50;35.10;;;;;;5092578;28;20399;-71
2022/10/10 10:36:50;;;;;;;13.38;6.30;;;17.60;33.80;;;;;;5072203;28;20384;-72
2022/10/10 10:39:49;;;;;;;17.42;6.25;;;17.80;33.70;;;;;;5092289;28;20493;-72
2022/10/10 10:42:52;;;;;;;17.33;6.00;;;18.00;33.10;;;;;;5092053;28;20751;-71
2022/10/10 10:45:46;;;;;;;20.63;6.40;;;18.10;32.30;;;;;;5092189;28;20374;-71
2022/10/10 10:48:44;;;;;;;17.60;6.13;;;18.00;32.50;;;;;;5091594;28;20378;-71
2022/10/10 10:51:58;;;;;;;16.23;6.57;;;18.10;32.70;;;;;;5092176;28;20367;-72
2022/10/10 10:54:44;;;;;;;10.90;4.97;;;18.40;32.10;;;;;;5092800;28;20859;-72
2022/10/10 10:57:23;;;;;;;10.02;4.40;;;18.60;31.00;;;;;;5091652;28;20398;-70
2022/10/10 11:00:07;;;;;;;17.52;5.32;;;18.90;30.00;;;;;;5096925;28;20378;-72
2022/10/10 11:02:38;;;;;;;12.68;5.03;;;18.90;30.10;;;;;;5099487;28;20386;-73
2022/10/10 11:05:33;;;;;;;13.43;5.80;;;19.00;29.60;;;;;;5102303;28;20381;-73
2022/10/10 11:08:10;;;;;;;24.70;7.10;;;19.20;29.10;;;;;;5102086;28;21021;-69
2022/10/10 11:10:48;;;;;;;20.85;6.05;;;19.40;28.30;;;;;;5100639;28;20413;-72
2022/10/10 11:13:28;;;;;;;14.98;6.07;;;19.50;28.20;;;;;;5095601;28;20381;-73
2022/10/10 11:16:12;;;;;;;10.50;5.40;;;19.60;27.80;;;;;;5090346;28;20454;-72
2022/10/10 11:19:09;;;;;;;15.67;4.67;;;19.60;27.60;;;;;;5091464;28;20390;-73
2022/10/10 11:21:45;;;;;;;10.48;4.60;;;19.70;27.60;;;;;;5090000;28;20416;-71
2022/10/10 11:24:18;;;;;;;14.77;5.22;;;19.80;26.90;;;;;;5091335;28;20381;-71
2022/10/10 11:26:49;;;;;;;15.52;4.78;;;20.00;26.90;;;;;;5091245;28;20393;-73
2022/10/10 11:29:20;;;;;;;11.70;4.50;;;20.10;26.50;;;;;;5091233;28;20377;-71
2022/10/10 11:31:56;;;;;;;16.92;4.75;;;20.00;26.30;;;;;;5091587;28;20732;-71
2022/10/10 11:34:28;;;;;;;16.58;4.30;;;20.20;26.10;;;;;;5091161;28;20406;-72
2022/10/10 11:37:00;;;;;;;13.20;4.30;;;20.30;25.20;;;;;;5089716;28;20390;-71
2022/10/10 11:39:47;;;;;;;12.48;4.10;;;20.50;23.80;;;;;;5091191;28;20463;-71
2022/10/10 11:42:19;;;;;;;12.70;4.68;;;20.80;23.70;;;;;;5091217;28;20378;-71
2022/10/10 11:44:53;;;;;;;15.73;4.55;;;20.90;23.80;;;;;;5091470;28;20390;-71
2022/10/10 11:47:45;;;;;;;15.63;4.40;;;20.90;23.30;;;;;;5091666;28;20739;-71
2022/10/10 11:50:14;;;;;;;13.48;4.28;;;20.90;23.20;;;;;;5091302;28;20378;-71
2022/10/10 11:52:54;;;;;;;21.27;4.70;;;20.80;22.90;;;;;;5089088;28;20798;-71
2022/10/10 11:55:36;;;;;;;15.38;4.38;;;21.00;23.00;;;;;;5087762;28;20390;-70
2022/10/10 11:58:05;;;;;;;19.27;4.77;;;21.00;22.40;;;;;;5089268;28;20406;-70
2022/10/10 12:00:42;;;;;;;19.58;5.18;;;21.30;22.40;;;;;;5092344;28;20480;-70
2022/10/10 12:03:08;;;;;;;20.55;5.30;;;21.20;21.70;;;;;;5089377;28;20397;-71
2022/10/10 12:05:37;;;;;;;14.90;4.70;;;21.10;22.80;;;;;;5091994;28;20390;-70
2022/10/10 12:08:16;;;;;;;14.52;4.30;;;21.00;22.60;;;;;;5092071;28;20437;-70
2022/10/10 12:10:47;;;;;;;15.52;4.05;;;20.90;22.90;;;;;;5074941;28;20387;-69
2022/10/10 12:13:34;;;;;;;22.75;4.10;;;21.20;22.10;;;;;;5072414;28;20391;-71
2022/10/10 12:16:09;;;;;;;15.55;4.25;;;21.20;22.10;;;;;;5082169;28;20382;-71
2022/10/10 12:18:43;;;;;;;14.85;4.00;;;21.30;21.90;;;;;;5072282;28;20418;-72
2022/10/10 12:21:17;;;;;;;12.25;3.55;;;21.30;21.70;;;;;;5073459;28;20435;-71
2022/10/10 12:23:47;;;;;;;17.10;4.20;;;21.30;21.30;;;;;;5077643;28;20429;-71
2022/10/10 12:26:19;;;;;;;14.77;3.80;;;21.30;21.40;;;;;;5071146;28;20402;-70
2022/10/10 12:29:02;;;;;;;17.55;3.90;;;21.20;21.30;;;;;;5071169;28;20390;-72
2022/10/10 12:31:29;;;;;;;12.93;3.97;;;21.20;22.00;;;;;;5077258;28;20402;-71
2022/10/10 12:34:09;;;;;;;17.80;4.70;;;21.10;21.40;;;;;;5099805;28;20394;-71
2022/10/10 12:36:38;;;;;;;17.45;4.88;;;20.90;21.60;;;;;;5098908;28;20378;-71
2022/10/10 12:39:07;;;;;;;23.87;5.37;;;20.80;22.30;;;;;;5095125;28;20478;-71
2022/10/10 12:41:41;;;;;;;18.45;5.55;;;20.80;22.40;;;;;;5091186;28;20730;-71
2022/10/10 12:44:21;;;;;;;20.38;5.20;;;20.90;22.20;;;;;;5090359;28;20401;-70
2022/10/10 12:47:06;;;;;;;18.63;4.70;;;21.00;22.30;;;;;;5090997;28;20507;-71
2022/10/10 12:49:34;;;;;;;18.20;4.68;;;21.10;21.90;;;;;;5091293;28;20398;-70
2022/10/10 12:52:11;;;;;;;21.10;5.13;;;21.20;22.50;;;;;;5090241;28;20479;-70
2022/10/10 12:54:42;;;;;;;15.93;5.10;;;21.10;22.50;;;;;;5091142;28;20400;-70
2022/10/10 12:57:12;;;;;;;17.60;5.47;;;21.20;22.50;;;;;;5090500;28;20455;-71
2022/10/10 12:59:39;;;;;;;18.02;4.90;;;21.30;22.20;;;;;;5090633;28;20402;-71
2022/10/10 13:02:26;;;;;;;18.20;4.38;;;21.30;22.10;;;;;;5090362;28;20743;-72
2022/10/10 13:04:56;;;;;;;15.63;4.30;;;21.30;22.20;;;;;;5090593;28;20381;-70